Time;durP1;ratioP1;P1;durP2;ratioP2;P2;SDS_P1;SDS_P2;PMS_P1;PMS_P2;Temp;Humidity;BMP_temperature;BMP_pressure;BME280_temperature;BME280_humidity;BME280_pressure;Samples;Min_cycle;Max_cycle;Signal;HPM_P1;HPM_P2
2021/09/03 00:01:19;;;;;;;11.32;6.75;;;22.40;61.10;;;;;;6161330;28;81094;-60
2021/09/03 00:04:19;;;;;;;10.63;6.40;;;22.40;61.10;;;;;;6163099;28;80776;-60
2021/09/03 00:07:20;;;;;;;11.30;6.80;;;22.40;60.90;;;;;;6160961;28;80774;-60
2021/09/03 00:10:21;;;;;;;9.95;6.30;;;22.30;60.90;;;;;;6160908;28;81669;-59
2021/09/03 00:13:22;;;;;;;9.93;6.38;;;22.30;60.90;;;;;;6162530;28;80458;-59
2021/09/03 00:16:22;;;;;;;12.07;6.65;;;22.30;61.10;;;;;;6159118;28;81451;-59
2021/09/03 00:19:23;;;;;;;11.32;6.57;;;22.30;60.90;;;;;;6160540;28;80279;-59
2021/09/03 00:22:23;;;;;;;9.90;5.95;;;22.30;60.70;;;;;;6161192;28;80400;-60
2021/09/03 00:25:24;;;;;;;10.07;6.35;;;22.30;60.80;;;;;;6160991;28;80661;-60
2021/09/03 00:28:24;;;;;;;10.82;6.40;;;22.30;60.90;;;;;;6161361;28;80562;-59
2021/09/03 00:31:25;;;;;;;8.70;5.65;;;22.30;60.80;;;;;;6162612;28;80272;-59
2021/09/03 00:34:25;;;;;;;8.23;5.55;;;22.30;60.70;;;;;;6161939;28;80993;-59
2021/09/03 00:37:26;;;;;;;9.80;6.47;;;22.30;60.70;;;;;;6161224;28;80516;-59
2021/09/03 00:40:26;;;;;;;10.60;6.30;;;22.30;60.80;;;;;;6160580;28;83053;-58
2021/09/03 00:43:27;;;;;;;10.07;6.55;;;22.30;60.60;;;;;;6161648;28;80852;-59
2021/09/03 00:46:27;;;;;;;10.68;6.47;;;22.30;60.70;;;;;;6159010;28;81622;-59
2021/09/03 00:49:28;;;;;;;10.32;6.75;;;22.30;60.40;;;;;;6161570;28;81524;-59
2021/09/03 00:52:28;;;;;;;10.50;6.03;;;22.30;60.60;;;;;;6161431;28;81731;-59
2021/09/03 00:55:29;;;;;;;11.23;6.53;;;22.30;60.40;;;;;;6161785;28;81589;-59
2021/09/03 00:58:29;;;;;;;9.95;5.85;;;22.30;60.50;;;;;;6160685;28;82424;-59
2021/09/03 01:01:30;;;;;;;9.25;5.85;;;22.30;60.60;;;;;;6161899;28;80851;-59
2021/09/03 01:04:30;;;;;;;8.50;5.65;;;22.30;60.40;;;;;;6158953;28;80794;-59
2021/09/03 01:07:31;;;;;;;10.48;5.90;;;22.30;60.40;;;;;;6157800;28;80753;-59
2021/09/03 01:10:32;;;;;;;8.75;6.20;;;22.30;60.50;;;;;;6159794;28;80681;-60
2021/09/03 01:13:32;;;;;;;8.10;5.57;;;22.30;60.40;;;;;;6157329;28;81910;-59
2021/09/03 01:16:32;;;;;;;9.77;6.25;;;22.30;60.70;;;;;;6159871;28;81303;-59
2021/09/03 01:19:33;;;;;;;10.80;5.88;;;22.30;60.70;;;;;;6159595;28;80264;-59
2021/09/03 01:22:33;;;;;;;10.23;6.38;;;22.30;60.20;;;;;;6160112;28;80426;-59
2021/09/03 01:25:34;;;;;;;8.68;5.70;;;22.30;60.70;;;;;;6161008;28;81369;-59
2021/09/03 01:28:34;;;;;;;11.40;6.72;;;22.30;60.40;;;;;;6158225;28;83146;-59
2021/09/03 01:31:35;;;;;;;11.00;6.70;;;22.30;60.30;;;;;;6156998;28;80699;-60
2021/09/03 01:34:35;;;;;;;9.18;5.70;;;22.30;60.70;;;;;;6159132;28;80527;-59
2021/09/03 01:37:36;;;;;;;9.90;5.57;;;22.30;60.60;;;;;;6161047;28;80593;-60
2021/09/03 01:40:36;;;;;;;8.63;5.75;;;22.30;60.40;;;;;;6158528;28;80858;-60
2021/09/03 01:43:37;;;;;;;11.20;6.57;;;22.30;60.60;;;;;;6157836;28;81854;-60
2021/09/03 01:46:37;;;;;;;9.70;5.20;;;22.30;60.60;;;;;;6161063;28;80772;-61
2021/09/03 01:49:38;;;;;;;9.40;5.43;;;22.30;60.50;;;;;;6158927;28;81710;-60
2021/09/03 01:52:38;;;;;;;8.93;5.72;;;22.30;60.60;;;;;;6154879;28;80704;-60
2021/09/03 01:55:39;;;;;;;9.40;5.78;;;22.30;60.50;;;;;;6160283;28;80280;-60
2021/09/03 01:58:39;;;;;;;8.65;5.85;;;22.30;60.40;;;;;;6157496;28;80288;-60
2021/09/03 02:01:40;;;;;;;9.77;6.10;;;22.30;60.30;;;;;;6159678;28;80469;-60
2021/09/03 02:04:40;;;;;;;6.90;5.10;;;22.30;60.40;;;;;;6159225;28;80861;-61
2021/09/03 02:07:40;;;;;;;10.93;6.10;;;22.30;60.40;;;;;;6159580;28;80930;-60
2021/09/03 02:10:41;;;;;;;7.80;5.35;;;22.30;60.40;;;;;;6158902;28;81438;-60
2021/09/03 02:13:41;;;;;;;10.07;5.47;;;22.30;60.00;;;;;;6157288;28;81542;-61
2021/09/03 02:16:42;;;;;;;9.82;5.28;;;22.30;60.40;;;;;;6157860;28;82269;-61
2021/09/03 02:19:42;;;;;;;8.10;5.47;;;22.30;60.30;;;;;;6156642;28;81058;-60
2021/09/03 02:22:44;;;;;;;8.45;5.50;;;22.30;60.50;;;;;;6157714;28;81264;-60
2021/09/03 02:25:44;;;;;;;8.80;5.88;;;22.30;60.40;;;;;;6158814;28;80475;-59
2021/09/03 02:28:45;;;;;;;8.18;5.00;;;22.30;60.30;;;;;;6158481;28;80976;-60
2021/09/03 02:31:45;;;;;;;11.02;5.82;;;22.30;60.10;;;;;;6158526;28;80852;-60
2021/09/03 02:34:46;;;;;;;7.68;4.97;;;22.30;60.40;;;;;;6157569;28;80794;-60
2021/09/03 02:37:47;;;;;;;7.80;5.28;;;22.30;60.40;;;;;;6154830;28;82584;-59
2021/09/03 02:40:47;;;;;;;6.82;4.95;;;22.30;60.20;;;;;;6157537;28;82075;-60
2021/09/03 02:43:48;;;;;;;8.55;5.43;;;22.30;60.20;;;;;;6151383;28;80441;-60
2021/09/03 02:46:48;;;;;;;6.93;5.20;;;22.30;60.20;;;;;;6154517;28;80910;-60
2021/09/03 02:49:49;;;;;;;6.93;5.40;;;22.30;60.30;;;;;;6160244;28;80253;-60
2021/09/03 02:52:49;;;;;;;6.22;4.47;;;22.30;60.40;;;;;;6158468;28;80354;-60
2021/09/03 02:55:50;;;;;;;8.75;5.57;;;22.20;60.00;;;;;;6157588;28;80781;-60
2021/09/03 02:58:50;;;;;;;8.60;5.30;;;22.30;60.10;;;;;;6156905;28;81525;-60
2021/09/03 03:01:51;;;;;;;6.75;4.72;;;22.30;60.10;;;;;;6155854;28;80366;-60
2021/09/03 03:04:51;;;;;;;6.20;4.57;;;22.20;60.00;;;;;;6155718;28;80343;-60
2021/09/03 03:07:51;;;;;;;5.68;4.47;;;22.30;60.30;;;;;;6157789;28;80452;-60
2021/09/03 03:10:52;;;;;;;8.25;5.15;;;22.30;60.30;;;;;;6156650;28;80942;-60
2021/09/03 03:14:02;;;;;;;7.32;4.65;;;22.30;60.40;;;;;;6157324;28;81278;-61
2021/09/03 03:17:02;;;;;;;8.63;4.72;;;22.30;60.20;;;;;;6157000;28;80702;-61
2021/09/03 03:20:03;;;;;;;8.35;4.97;;;22.20;60.00;;;;;;6157201;28;80814;-61
2021/09/03 03:23:03;;;;;;;7.72;5.22;;;22.30;60.10;;;;;;6157704;28;81455;-61
2021/09/03 03:26:04;;;;;;;10.13;5.40;;;22.20;60.00;;;;;;6159452;28;80290;-61
2021/09/03 03:29:04;;;;;;;8.02;5.13;;;22.30;60.20;;;;;;6157571;28;80412;-60
2021/09/03 03:32:05;;;;;;;8.52;5.20;;;22.20;60.10;;;;;;6163196;28;80213;-61
2021/09/03 03:35:05;;;;;;;7.65;4.75;;;22.30;60.10;;;;;;6160869;28;81121;-63
2021/09/03 03:38:06;;;;;;;7.32;4.60;;;22.20;60.00;;;;;;6161328;28;80910;-61
2021/09/03 03:41:06;;;;;;;7.60;5.55;;;22.20;60.00;;;;;;6154515;28;80236;-60
2021/09/03 03:44:07;;;;;;;7.68;4.88;;;22.20;59.90;;;;;;6160572;28;80873;-61
2021/09/03 03:47:07;;;;;;;8.35;5.38;;;22.20;59.90;;;;;;6161498;28;80162;-60
2021/09/03 03:50:08;;;;;;;9.73;5.82;;;22.20;59.90;;;;;;6161580;28;81505;-61
2021/09/03 03:53:11;;;;;;;8.77;5.57;;;22.20;59.80;;;;;;6159437;28;82826;-61
2021/09/03 03:56:11;;;;;;;10.75;7.15;;;22.30;60.00;;;;;;6162278;28;84944;-61
2021/09/03 03:59:12;;;;;;;13.38;7.88;;;22.20;60.10;;;;;;6160161;28;80461;-60
2021/09/03 04:02:12;;;;;;;10.05;6.78;;;22.20;59.60;;;;;;6162990;28;81572;-60
2021/09/03 04:05:13;;;;;;;11.65;7.15;;;22.20;59.90;;;;;;6160810;28;81333;-60
2021/09/03 04:08:13;;;;;;;12.20;6.53;;;22.20;60.20;;;;;;6160831;28;81177;-60
2021/09/03 04:11:14;;;;;;;15.23;7.82;;;22.20;60.40;;;;;;6160004;28;81480;-61
2021/09/03 04:14:16;;;;;;;9.52;6.05;;;22.20;60.40;;;;;;6160508;28;80558;-61
2021/09/03 04:17:16;;;;;;;14.15;6.70;;;22.20;60.00;;;;;;6161358;28;81711;-61
2021/09/03 04:20:17;;;;;;;11.63;6.32;;;22.20;60.30;;;;;;6161293;28;80561;-60
2021/09/03 04:23:17;;;;;;;11.38;6.43;;;22.20;60.60;;;;;;6160394;28;81649;-60
2021/09/03 04:26:17;;;;;;;11.70;6.13;;;22.20;60.30;;;;;;6153720;28;80312;-59
2021/09/03 04:29:18;;;;;;;11.80;6.10;;;22.20;60.60;;;;;;6157467;28;81588;-60
2021/09/03 04:32:18;;;;;;;10.82;5.97;;;22.30;61.50;;;;;;6159260;28;82868;-61
2021/09/03 04:35:19;;;;;;;12.85;6.05;;;22.20;61.20;;;;;;6162462;28;80965;-60
2021/09/03 04:38:21;;;;;;;11.35;6.63;;;22.20;61.30;;;;;;6161250;28;80542;-61
2021/09/03 04:41:22;;;;;;;10.48;6.35;;;22.20;61.50;;;;;;6156125;28;82731;-61
2021/09/03 04:44:22;;;;;;;12.85;6.35;;;22.20;61.50;;;;;;6160059;28;81531;-61
2021/09/03 04:47:23;;;;;;;12.15;5.90;;;22.20;61.70;;;;;;6157862;28;82957;-62
2021/09/03 04:50:23;;;;;;;11.85;5.80;;;22.20;61.60;;;;;;6160344;28;80853;-62
2021/09/03 04:53:24;;;;;;;11.70;6.07;;;22.30;61.80;;;;;;6156132;28;80475;-61
2021/09/03 04:56:24;;;;;;;9.23;6.65;;;22.30;61.20;;;;;;6148798;28;81799;-61
2021/09/03 04:59:25;;;;;;;13.88;5.85;;;22.20;62.30;;;;;;6142319;28;82732;-61
2021/09/03 05:02:25;;;;;;;8.68;5.82;;;22.30;62.50;;;;;;6158924;28;80629;-60
2021/09/03 05:05:26;;;;;;;15.15;7.93;;;22.20;61.90;;;;;;6159954;28;81508;-60
2021/09/03 05:08:26;;;;;;;17.35;8.18;;;22.20;61.00;;;;;;6158489;28;81306;-61
2021/09/03 05:11:27;;;;;;;13.35;7.85;;;22.30;60.60;;;;;;6160968;28;80187;-61
2021/09/03 05:14:27;;;;;;;20.30;8.23;;;22.20;60.60;;;;;;6157266;28;80957;-61
2021/09/03 05:17:28;;;;;;;15.88;7.30;;;22.20;60.30;;;;;;6159977;28;80519;-61
2021/09/03 05:20:28;;;;;;;17.15;8.60;;;22.20;60.50;;;;;;6155145;28;80706;-61
2021/09/03 05:23:29;;;;;;;12.02;6.80;;;22.20;60.30;;;;;;6158485;28;80463;-61
2021/09/03 05:26:29;;;;;;;12.30;7.60;;;22.20;59.80;;;;;;6159225;28;81232;-61
2021/09/03 05:29:30;;;;;;;15.48;8.43;;;22.20;59.70;;;;;;6151756;28;83931;-60
2021/09/03 05:32:30;;;;;;;17.92;8.48;;;22.20;59.50;;;;;;6155958;28;80397;-61
2021/09/03 05:35:31;;;;;;;19.95;8.30;;;22.20;59.30;;;;;;6159592;28;80309;-60
2021/09/03 05:38:31;;;;;;;17.63;8.25;;;22.20;59.40;;;;;;6159623;28;80900;-61
2021/09/03 05:41:32;;;;;;;16.73;9.15;;;22.20;59.10;;;;;;6156141;28;81663;-61
2021/09/03 05:44:32;;;;;;;15.82;8.85;;;22.10;58.90;;;;;;6158034;28;80899;-61
2021/09/03 05:47:33;;;;;;;13.93;8.30;;;22.10;58.70;;;;;;6158198;28;81390;-61
2021/09/03 05:50:33;;;;;;;16.90;9.10;;;22.10;58.60;;;;;;6156540;28;80890;-61
2021/09/03 05:53:34;;;;;;;16.35;9.10;;;22.20;58.40;;;;;;6158545;28;80629;-61
2021/09/03 05:56:34;;;;;;;11.43;7.75;;;22.20;58.50;;;;;;6160569;28;80729;-61
2021/09/03 05:59:35;;;;;;;15.30;8.85;;;22.20;58.60;;;;;;6160295;28;81666;-61
2021/09/03 06:02:35;;;;;;;15.63;9.52;;;22.10;58.30;;;;;;6158618;28;80867;-61
2021/09/03 06:05:36;;;;;;;14.90;9.02;;;22.10;58.40;;;;;;6157988;28;80698;-61
2021/09/03 06:08:36;;;;;;;16.65;9.85;;;22.10;58.70;;;;;;6161413;28;80652;-61
2021/09/03 06:11:37;;;;;;;15.00;9.40;;;22.20;59.30;;;;;;6156001;28;80624;-60
2021/09/03 06:14:37;;;;;;;21.75;9.65;;;22.20;59.00;;;;;;6160038;28;81302;-61
2021/09/03 06:17:38;;;;;;;18.83;10.70;;;22.10;58.60;;;;;;6156644;28;80766;-61
2021/09/03 06:20:38;;;;;;;19.92;9.80;;;22.10;58.60;;;;;;6153130;28;83115;-61
2021/09/03 06:23:39;;;;;;;17.48;9.80;;;22.10;58.80;;;;;;6158596;28;82966;-60
2021/09/03 06:26:39;;;;;;;21.13;9.88;;;22.10;58.40;;;;;;6156472;28;81635;-61
2021/09/03 06:32:40;;;;;;;15.82;9.45;;;22.10;58.40;;;;;;6157416;28;81537;-60
2021/09/03 06:35:40;;;;;;;16.55;9.77;;;22.10;58.40;;;;;;6158270;28;80393;-61
2021/09/03 06:38:41;;;;;;;13.68;8.80;;;22.10;58.20;;;;;;6155823;28;80572;-61
2021/09/03 06:41:41;;;;;;;14.27;8.82;;;22.10;58.50;;;;;;6151351;28;81557;-60
2021/09/03 06:44:42;;;;;;;18.00;10.57;;;22.20;58.20;;;;;;6149979;28;80298;-61
2021/09/03 06:47:42;;;;;;;15.55;9.82;;;22.20;58.20;;;;;;6149822;28;83187;-60
2021/09/03 06:50:43;;;;;;;14.15;9.00;;;22.20;58.20;;;;;;6151886;28;83011;-60
2021/09/03 06:53:43;;;;;;;16.73;8.23;;;22.10;57.90;;;;;;6157443;28;81029;-60
2021/09/03 06:56:44;;;;;;;16.20;9.38;;;22.10;57.80;;;;;;6155978;28;81341;-60
2021/09/03 06:59:44;;;;;;;16.02;9.95;;;22.10;57.90;;;;;;6161103;28;81272;-61
2021/09/03 07:02:45;;;;;;;16.58;9.60;;;22.20;57.90;;;;;;6155938;28;80319;-61
2021/09/03 07:05:45;;;;;;;15.35;8.98;;;22.20;57.70;;;;;;6158311;28;80983;-61
2021/09/03 07:08:46;;;;;;;18.45;9.48;;;22.10;57.90;;;;;;6155379;28;80286;-61
2021/09/03 07:11:46;;;;;;;14.02;8.50;;;22.20;57.50;;;;;;6156083;28;80761;-61
2021/09/03 07:14:47;;;;;;;16.02;8.68;;;22.20;57.80;;;;;;6157936;28;80379;-61
2021/09/03 07:17:47;;;;;;;14.65;8.48;;;22.20;57.90;;;;;;6158095;28;81180;-61
2021/09/03 07:20:48;;;;;;;14.93;8.70;;;22.20;57.80;;;;;;6155466;28;81665;-61
2021/09/03 07:23:48;;;;;;;19.40;8.88;;;22.20;57.70;;;;;;6154336;28;82097;-60
2021/09/03 07:26:48;;;;;;;13.80;8.43;;;22.20;58.40;;;;;;6158032;28;80503;-61
2021/09/03 07:29:49;;;;;;;14.00;8.43;;;22.20;57.50;;;;;;6157398;28;80818;-61
2021/09/03 07:32:49;;;;;;;16.95;8.57;;;22.20;57.80;;;;;;6157748;28;81359;-61
2021/09/03 07:35:50;;;;;;;13.35;7.72;;;22.20;57.80;;;;;;6156933;28;80379;-61
2021/09/03 07:38:50;;;;;;;12.30;7.60;;;22.10;57.30;;;;;;6158177;28;80413;-61
2021/09/03 07:41:51;;;;;;;13.02;7.93;;;22.10;57.20;;;;;;6158437;28;80385;-60
2021/09/03 07:44:51;;;;;;;14.23;8.10;;;22.20;57.20;;;;;;6156428;28;80369;-61
2021/09/03 07:47:52;;;;;;;14.02;7.45;;;22.20;57.10;;;;;;6158634;28;80420;-61
2021/09/03 07:50:52;;;;;;;12.45;7.45;;;22.20;57.40;;;;;;6157631;28;81509;-61
2021/09/03 07:53:53;;;;;;;12.82;7.70;;;22.20;57.40;;;;;;6156776;28;81070;-61
2021/09/03 07:56:53;;;;;;;15.38;8.52;;;22.20;57.30;;;;;;6157448;28;82340;-61
2021/09/03 07:59:54;;;;;;;15.30;7.38;;;22.30;57.60;;;;;;6154608;28;80560;-61
2021/09/03 08:02:54;;;;;;;12.38;7.70;;;22.20;57.60;;;;;;6146937;28;80787;-61
2021/09/03 08:05:55;;;;;;;10.90;6.60;;;22.30;57.50;;;;;;6159026;28;80703;-61
2021/09/03 08:08:55;;;;;;;12.15;7.10;;;22.30;57.50;;;;;;6157231;28;80827;-62
2021/09/03 08:11:56;;;;;;;12.10;7.60;;;22.30;57.50;;;;;;6146392;28;81049;-63
2021/09/03 08:14:56;;;;;;;11.60;7.50;;;22.30;57.70;;;;;;6155468;28;80651;-63
2021/09/03 08:17:57;;;;;;;11.02;6.88;;;22.30;57.60;;;;;;6168676;28;80631;-63
2021/09/03 08:20:58;;;;;;;11.68;7.22;;;22.30;57.40;;;;;;6160666;28;80484;-63
2021/09/03 08:23:58;;;;;;;10.13;6.88;;;22.40;57.50;;;;;;6159525;28;80571;-63
2021/09/03 08:26:59;;;;;;;14.18;7.10;;;22.40;58.10;;;;;;6152064;28;80427;-61
2021/09/03 08:29:59;;;;;;;12.30;6.80;;;22.40;57.50;;;;;;6159077;28;80498;-62
2021/09/03 08:33:00;;;;;;;12.00;6.32;;;22.40;57.50;;;;;;6155082;28;80982;-62
2021/09/03 08:36:00;;;;;;;11.40;6.38;;;22.40;57.40;;;;;;6157256;28;82352;-62
2021/09/03 08:39:01;;;;;;;11.68;7.20;;;22.40;57.60;;;;;;6159436;28;81391;-62
2021/09/03 08:42:01;;;;;;;11.27;6.72;;;22.40;57.90;;;;;;6157943;28;81316;-62
2021/09/03 08:45:02;;;;;;;12.02;5.55;;;22.40;58.20;;;;;;6157205;28;81397;-62
2021/09/03 08:48:02;;;;;;;13.93;6.20;;;22.40;58.30;;;;;;6160559;28;80687;-61
2021/09/03 08:51:03;;;;;;;9.10;6.22;;;22.40;58.30;;;;;;6160229;28;81185;-62
2021/09/03 08:54:03;;;;;;;9.73;6.18;;;22.40;58.30;;;;;;6158035;28;81245;-62
2021/09/03 08:57:04;;;;;;;14.00;7.05;;;22.40;58.20;;;;;;6158979;28;80983;-61
2021/09/03 09:00:04;;;;;;;13.05;8.13;;;22.30;57.80;;;;;;6160639;28;80928;-61
2021/09/03 09:03:05;;;;;;;13.18;7.28;;;22.40;57.70;;;;;;6160099;28;80818;-62
2021/09/03 09:06:05;;;;;;;9.75;7.05;;;22.40;57.60;;;;;;6154427;28;80618;-62
2021/09/03 09:09:07;;;;;;;9.32;6.07;;;22.30;57.40;;;;;;6158061;28;82793;-61
2021/09/03 09:12:10;;;;;;;11.98;6.35;;;22.40;57.20;;;;;;6150457;28;80622;-62
2021/09/03 09:15:12;;;;;;;11.57;7.18;;;22.40;57.10;;;;;;6157621;28;81360;-62
2021/09/03 09:18:13;;;;;;;10.45;6.40;;;22.40;56.80;;;;;;6158945;28;81954;-62
2021/09/03 09:21:13;;;;;;;9.25;5.80;;;22.40;56.70;;;;;;6158048;28;80488;-61
2021/09/03 09:24:14;;;;;;;9.00;5.97;;;22.40;56.70;;;;;;6154134;28;80635;-62
2021/09/03 09:27:14;;;;;;;11.32;6.68;;;22.40;56.40;;;;;;6157313;28;81386;-62
2021/09/03 09:30:15;;;;;;;9.63;6.18;;;22.50;56.00;;;;;;6158145;28;80574;-62
2021/09/03 09:33:16;;;;;;;8.77;5.82;;;22.40;56.00;;;;;;6158063;28;80129;-61
2021/09/03 09:36:16;;;;;;;11.02;5.85;;;22.50;56.00;;;;;;6153408;28;82709;-62
2021/09/03 09:39:17;;;;;;;11.02;6.03;;;22.50;56.10;;;;;;6155608;28;80843;-62
2021/09/03 09:42:17;;;;;;;10.13;6.00;;;22.50;56.30;;;;;;6158257;28;80755;-62
2021/09/03 09:45:19;;;;;;;10.50;5.82;;;22.50;56.50;;;;;;6159613;28;80989;-62
2021/09/03 09:48:20;;;;;;;8.80;5.75;;;22.50;56.40;;;;;;6159179;28;80449;-63
2021/09/03 09:51:21;;;;;;;9.88;6.07;;;22.60;56.40;;;;;;6156820;28;80448;-62
2021/09/03 09:54:21;;;;;;;10.43;6.05;;;22.60;56.40;;;;;;6157815;28;80095;-62
2021/09/03 09:57:22;;;;;;;12.40;6.68;;;22.60;56.20;;;;;;6146301;28;80712;-62
2021/09/03 10:00:22;;;;;;;11.32;6.40;;;22.50;55.50;;;;;;6156959;28;81434;-62
2021/09/03 10:03:24;;;;;;;9.80;6.15;;;22.50;55.30;;;;;;6156338;28;80822;-62
2021/09/03 10:06:29;;;;;;;13.27;6.05;;;22.50;55.10;;;;;;6158519;28;81638;-62
2021/09/03 10:09:33;;;;;;;8.48;5.47;;;22.50;55.60;;;;;;6158227;28;80323;-63
2021/09/03 10:12:33;;;;;;;10.27;5.90;;;22.50;55.40;;;;;;6146527;28;80544;-63
2021/09/03 10:15:35;;;;;;;9.98;5.80;;;22.50;55.10;;;;;;6146383;28;80403;-63
2021/09/03 10:18:36;;;;;;;10.35;5.95;;;22.50;54.90;;;;;;6154680;28;80426;-64
2021/09/03 10:21:40;;;;;;;8.00;5.35;;;22.50;55.10;;;;;;6156762;28;81399;-64
2021/09/03 10:24:43;;;;;;;9.23;5.80;;;22.50;54.60;;;;;;6156514;28;80343;-67
2021/09/03 10:27:43;;;;;;;8.82;6.25;;;22.50;54.50;;;;;;6149368;28;81724;-64
2021/09/03 10:30:44;;;;;;;9.98;5.65;;;22.50;54.00;;;;;;6159234;28;80763;-64
2021/09/03 10:33:44;;;;;;;8.90;5.93;;;22.50;53.30;;;;;;6159389;28;81144;-63
2021/09/03 10:36:45;;;;;;;8.20;5.22;;;22.50;53.30;;;;;;6152677;28;80348;-62
2021/09/03 10:39:45;;;;;;;9.80;5.80;;;22.50;53.00;;;;;;6151499;28;81101;-62
2021/09/03 10:42:46;;;;;;;8.50;5.68;;;22.60;53.40;;;;;;6149303;28;80391;-60
2021/09/03 10:45:47;;;;;;;8.05;5.00;;;22.60;53.30;;;;;;6158423;28;81213;-61
2021/09/03 10:48:48;;;;;;;7.47;5.28;;;22.60;53.40;;;;;;6156497;28;80393;-61
2021/09/03 10:51:48;;;;;;;7.70;5.10;;;22.70;53.50;;;;;;6157310;28;80307;-61
2021/09/03 10:54:49;;;;;;;8.65;5.45;;;22.80;53.70;;;;;;6154621;28;80670;-61
2021/09/03 10:57:49;;;;;;;12.52;5.63;;;22.80;53.60;;;;;;6157246;28;81500;-61
2021/09/03 11:00:50;;;;;;;7.75;5.40;;;22.80;53.70;;;;;;6157301;28;80531;-61
2021/09/03 11:03:50;;;;;;;8.95;6.28;;;22.80;53.90;;;;;;6158343;28;80601;-61
2021/09/03 11:06:51;;;;;;;9.10;5.50;;;22.70;53.90;;;;;;6148628;28;81427;-62
2021/09/03 11:09:53;;;;;;;9.18;4.85;;;22.80;54.30;;;;;;6155309;28;82015;-61
2021/09/03 11:12:53;;;;;;;8.68;5.22;;;22.80;53.90;;;;;;6156288;28;81171;-62
2021/09/03 11:15:54;;;;;;;9.88;6.13;;;22.70;53.30;;;;;;6155542;28;81787;-61
2021/09/03 11:18:54;;;;;;;14.07;6.63;;;22.70;52.80;;;;;;6155967;28;80487;-62
2021/09/03 11:21:56;;;;;;;8.95;6.05;;;22.80;53.30;;;;;;6151456;28;80475;-61
2021/09/03 11:25:00;;;;;;;7.68;5.63;;;22.80;53.40;;;;;;6139339;28;82261;-61
2021/09/03 11:28:00;;;;;;;9.50;5.95;;;22.80;53.60;;;;;;6155386;28;80734;-61
2021/09/03 11:31:01;;;;;;;10.38;5.60;;;22.80;53.50;;;;;;6157705;28;82326;-61
2021/09/03 11:34:06;;;;;;;10.68;6.07;;;22.80;53.50;;;;;;6155397;28;80514;-61
2021/09/03 11:37:06;;;;;;;9.68;6.13;;;22.90;53.60;;;;;;6153979;28;80806;-61
2021/09/03 11:40:07;;;;;;;14.48;6.03;;;22.90;53.60;;;;;;6155550;28;80730;-61
2021/09/03 11:43:07;;;;;;;12.48;6.45;;;22.80;53.50;;;;;;6155586;28;82627;-62
2021/09/03 11:46:07;;;;;;;12.90;7.90;;;22.90;53.50;;;;;;6157141;28;80839;-62
2021/09/03 11:49:08;;;;;;;10.48;6.55;;;22.90;53.30;;;;;;6157383;28;80510;-62
2021/09/03 11:52:08;;;;;;;9.73;5.93;;;22.90;53.30;;;;;;6160669;28;80567;-61
2021/09/03 11:55:13;;;;;;;7.50;5.95;;;22.90;53.60;;;;;;6158461;28;83232;-62
2021/09/03 11:58:14;;;;;;;8.98;5.97;;;22.90;52.60;;;;;;6158882;28;83158;-62
2021/09/03 12:01:14;;;;;;;9.57;6.05;;;23.00;52.20;;;;;;6161359;28;80565;-62
2021/09/03 12:04:15;;;;;;;9.30;5.28;;;23.00;52.70;;;;;;6162048;28;81522;-62
2021/09/03 12:07:15;;;;;;;7.45;5.18;;;23.00;53.00;;;;;;6162100;28;80183;-63
2021/09/03 12:10:16;;;;;;;6.93;5.22;;;23.00;52.40;;;;;;6157048;28;80832;-63
2021/09/03 12:13:16;;;;;;;6.97;5.00;;;23.00;51.80;;;;;;6152453;28;80570;-61
2021/09/03 12:16:17;;;;;;;7.32;5.28;;;23.00;52.50;;;;;;6159740;28;81520;-62
2021/09/03 12:19:17;;;;;;;9.30;6.15;;;23.10;52.80;;;;;;6143414;28;84177;-61
2021/09/03 12:22:18;;;;;;;10.13;6.32;;;23.00;52.40;;;;;;6162374;28;81863;-61
2021/09/03 12:25:18;;;;;;;7.90;5.32;;;23.10;52.80;;;;;;6158389;28;80892;-61
2021/09/03 12:28:19;;;;;;;8.73;5.60;;;23.00;52.70;;;;;;6157089;28;80699;-61
2021/09/03 12:31:19;;;;;;;8.48;5.65;;;23.00;52.50;;;;;;6162265;28;80853;-62
2021/09/03 12:34:20;;;;;;;11.93;7.90;;;23.00;52.80;;;;;;6160481;28;80423;-60
2021/09/03 12:37:20;;;;;;;12.93;6.45;;;23.00;52.80;;;;;;6161626;28;80268;-64
2021/09/03 12:40:21;;;;;;;11.82;6.13;;;23.00;52.70;;;;;;6159254;28;80425;-62
2021/09/03 12:43:21;;;;;;;10.68;6.97;;;23.10;53.10;;;;;;6159728;28;81398;-62
2021/09/03 12:46:22;;;;;;;8.43;5.13;;;23.00;53.10;;;;;;6158455;28;81806;-61
2021/09/03 12:49:26;;;;;;;13.32;5.60;;;23.00;53.50;;;;;;6159986;28;83476;-61
2021/09/03 12:52:27;;;;;;;6.82;5.20;;;23.00;53.30;;;;;;6161065;28;81695;-61
2021/09/03 12:55:27;;;;;;;7.32;5.45;;;23.00;53.80;;;;;;6158880;28;83196;-62
2021/09/03 12:58:28;;;;;;;10.02;5.47;;;23.00;53.50;;;;;;6159850;28;81528;-62
2021/09/03 13:01:28;;;;;;;9.57;5.55;;;23.00;53.60;;;;;;6160671;28;80900;-61
2021/09/03 13:04:29;;;;;;;12.70;6.60;;;23.00;53.80;;;;;;6161128;28;80176;-62
2021/09/03 13:07:29;;;;;;;8.57;5.80;;;23.00;54.20;;;;;;6158577;28;81799;-62
2021/09/03 13:10:30;;;;;;;8.35;5.53;;;23.00;54.40;;;;;;6146840;28;81839;-62
2021/09/03 13:13:30;;;;;;;8.02;5.57;;;23.00;54.20;;;;;;6159646;28;83085;-63
2021/09/03 13:16:36;;;;;;;7.95;5.93;;;23.10;54.20;;;;;;6159446;28;80937;-62
2021/09/03 13:19:36;;;;;;;12.07;6.13;;;23.00;53.50;;;;;;6158496;28;80998;-63
2021/09/03 13:22:37;;;;;;;8.95;5.55;;;23.00;54.10;;;;;;6159000;28;80273;-63
2021/09/03 13:25:37;;;;;;;8.23;5.43;;;23.10;53.60;;;;;;6156170;28;81399;-61
2021/09/03 13:28:38;;;;;;;14.10;6.03;;;23.10;52.60;;;;;;6160057;28;80781;-63
2021/09/03 13:31:38;;;;;;;9.38;5.72;;;23.10;51.90;;;;;;6161333;28;80464;-62
2021/09/03 13:34:39;;;;;;;8.32;5.15;;;23.10;51.70;;;;;;6158440;28;81469;-61
2021/09/03 13:37:39;;;;;;;7.22;5.18;;;23.10;51.70;;;;;;6159834;28;80905;-63
2021/09/03 13:40:40;;;;;;;9.57;5.65;;;23.10;51.90;;;;;;6157932;28;80742;-62
2021/09/03 13:43:40;;;;;;;18.40;5.57;;;23.10;52.00;;;;;;6158496;28;80411;-63
2021/09/03 13:46:41;;;;;;;8.25;5.57;;;23.10;52.50;;;;;;6157300;28;80807;-62
2021/09/03 13:49:41;;;;;;;12.15;6.03;;;23.10;52.50;;;;;;6158564;28;81762;-63
2021/09/03 13:52:42;;;;;;;11.80;5.63;;;23.00;52.60;;;;;;6159519;28;80351;-63
2021/09/03 13:55:42;;;;;;;10.63;6.38;;;23.10;52.80;;;;;;6157103;28;81474;-63
2021/09/03 13:58:43;;;;;;;9.63;5.88;;;23.00;53.50;;;;;;6150034;28;80421;-63
2021/09/03 14:01:43;;;;;;;12.43;5.28;;;23.00;53.10;;;;;;6154953;28;80706;-63
2021/09/03 14:04:44;;;;;;;8.68;5.72;;;23.00;53.50;;;;;;6158665;28;81267;-63
2021/09/03 14:07:44;;;;;;;8.15;5.35;;;23.00;53.90;;;;;;6156280;28;81286;-63
2021/09/03 14:10:48;;;;;;;12.32;5.93;;;23.00;53.90;;;;;;6161103;28;80278;-63
2021/09/03 14:13:48;;;;;;;9.38;5.43;;;23.10;54.10;;;;;;6157102;28;81182;-62
2021/09/03 14:16:49;;;;;;;10.90;6.57;;;23.10;53.70;;;;;;6157258;28;80275;-63
2021/09/03 14:19:49;;;;;;;9.45;5.53;;;23.00;54.30;;;;;;6158669;28;80663;-62
2021/09/03 14:22:50;;;;;;;9.68;5.90;;;23.00;54.50;;;;;;6159189;28;80719;-63
2021/09/03 14:25:50;;;;;;;9.27;5.53;;;23.00;54.50;;;;;;6159393;28;81370;-64
2021/09/03 14:28:51;;;;;;;14.20;6.03;;;23.00;54.10;;;;;;6157334;28;80369;-62
2021/09/03 14:31:51;;;;;;;8.10;5.20;;;23.00;54.30;;;;;;6159706;28;81002;-61
2021/09/03 14:34:52;;;;;;;14.40;6.13;;;23.10;54.20;;;;;;6155382;28;80544;-63
2021/09/03 14:37:52;;;;;;;10.55;5.55;;;23.10;54.30;;;;;;6158173;28;80509;-62
2021/09/03 14:40:53;;;;;;;20.35;5.63;;;23.10;53.50;;;;;;6157213;28;82375;-62
2021/09/03 14:43:53;;;;;;;8.88;6.03;;;23.10;53.90;;;;;;6160009;28;80557;-63
2021/09/03 14:46:54;;;;;;;10.65;5.80;;;23.10;53.50;;;;;;6158369;28;80712;-65
2021/09/03 14:49:54;;;;;;;8.43;5.20;;;23.10;53.50;;;;;;6158788;28;80481;-63
2021/09/03 14:52:54;;;;;;;8.95;6.18;;;23.10;53.60;;;;;;6158370;28;80502;-61
2021/09/03 14:55:55;;;;;;;8.63;6.03;;;23.10;53.20;;;;;;6155741;28;81589;-62
2021/09/03 14:58:55;;;;;;;9.45;5.55;;;23.10;53.50;;;;;;6157584;28;82106;-62
2021/09/03 15:01:56;;;;;;;13.43;6.32;;;23.10;53.90;;;;;;6157768;28;80371;-63
2021/09/03 15:04:56;;;;;;;8.32;5.25;;;23.10;54.20;;;;;;6156370;28;80389;-63
2021/09/03 15:07:57;;;;;;;12.75;5.88;;;23.10;53.80;;;;;;6158424;28;80833;-63
2021/09/03 15:10:57;;;;;;;10.13;5.53;;;23.10;53.60;;;;;;6158528;28;81155;-62
2021/09/03 15:13:58;;;;;;;10.10;5.70;;;23.10;53.60;;;;;;6156564;28;80419;-63
2021/09/03 15:16:58;;;;;;;7.93;5.60;;;23.10;53.90;;;;;;6155359;28;80816;-60
2021/09/03 15:19:59;;;;;;;8.20;5.25;;;23.10;54.00;;;;;;6155703;28;82301;-61
2021/09/03 15:22:59;;;;;;;9.93;5.97;;;23.10;53.60;;;;;;6156992;28;81578;-61
2021/09/03 15:26:00;;;;;;;9.70;6.45;;;23.10;53.90;;;;;;6156956;28;80795;-61
2021/09/03 15:29:00;;;;;;;9.05;5.82;;;23.00;54.20;;;;;;6162083;28;81516;-60
2021/09/03 15:32:01;;;;;;;9.48;6.25;;;23.00;54.10;;;;;;6162097;28;80661;-60
2021/09/03 15:35:01;;;;;;;9.10;6.18;;;23.00;54.20;;;;;;6160887;28;80410;-61